FK-0023 weather

George Island Airport
George Island House, Falkland Islands

Public forecast

Using degrees Celsius for public forecast. Weather courtesy of forecast.io.

METAR (pilot weather report)

Closest report is Mount Pleasant Airport, 57.8 nm (107.1 km) ENE. Retrieved 2019/07/24 00:50 UTC (33 minutes ago):

EGYP 240050Z 21021KT 9999 SCT015 BKN040 01/M01 Q1010 WHT

TAF (pilot weather forecast)

Closest forecast is Mount Pleasant Airport, 57.8 nm (107.1 km) ENE. Retrieved 2019/07/24 03:33 UTC (0 seconds ago):

TAF EGYP 240101Z 2403/2421 22015KT 9999 FEW020 PROB40 TEMPO 2403/2404 21018G28KT 1500 SHSN SCT002 BKN010CB PROB30 TEMPO 2404/2409 21015G25KT 1800 SHSN SCT003 BKN010TCU BECMG 2409/2412 28010KT PROB30 TEMPO 2409/2415 4000 -SHSN BKN016 PROB30 TEMPO 2415/2421 7000 -SHRASN BKN020